sensor_id;sensor_type;location;lat;lon;timestamp;P1;durP1;ratioP1;P2;durP2;ratioP2
48524;SDS011;34316;51.514;-0.178;2023-11-19T00:01:02;3.97;;;3.00;;
48524;SDS011;34316;51.514;-0.178;2023-11-19T00:03:07;3.67;;;3.10;;
48524;SDS011;34316;51.514;-0.178;2023-11-19T00:05:10;4.35;;;2.88;;
48524;SDS011;34316;51.514;-0.178;2023-11-19T00:07:15;3.78;;;3.05;;
48524;SDS011;34316;51.514;-0.178;2023-11-19T00:09:21;3.67;;;3.00;;
48524;SDS011;34316;51.514;-0.178;2023-11-19T00:11:24;3.30;;;2.72;;
48524;SDS011;34316;51.514;-0.178;2023-11-19T00:13:25;2.95;;;2.65;;
48524;SDS011;34316;51.514;-0.178;2023-11-19T00:15:28;4.45;;;3.05;;
48524;SDS011;34316;51.514;-0.178;2023-11-19T00:17:30;3.50;;;3.08;;
48524;SDS011;34316;51.514;-0.178;2023-11-19T00:19:31;3.55;;;2.88;;
48524;SDS011;34316;51.514;-0.178;2023-11-19T00:21:33;3.60;;;2.90;;
48524;SDS011;34316;51.514;-0.178;2023-11-19T00:23:35;3.70;;;2.90;;
48524;SDS011;34316;51.514;-0.178;2023-11-19T00:25:37;3.78;;;3.15;;
48524;SDS011;34316;51.514;-0.178;2023-11-19T00:27:40;3.90;;;3.10;;
48524;SDS011;34316;51.514;-0.178;2023-11-19T00:29:46;6.93;;;3.35;;
48524;SDS011;34316;51.514;-0.178;2023-11-19T00:31:48;4.82;;;3.38;;
48524;SDS011;34316;51.514;-0.178;2023-11-19T00:33:50;3.67;;;2.92;;
48524;SDS011;34316;51.514;-0.178;2023-11-19T00:35:52;3.63;;;2.92;;
48524;SDS011;34316;51.514;-0.178;2023-11-19T00:37:54;3.75;;;3.15;;
48524;SDS011;34316;51.514;-0.178;2023-11-19T00:39:56;3.72;;;3.08;;
48524;SDS011;34316;51.514;-0.178;2023-11-19T00:41:59;3.30;;;2.80;;
48524;SDS011;34316;51.514;-0.178;2023-11-19T00:44:02;3.72;;;3.00;;
48524;SDS011;34316;51.514;-0.178;2023-11-19T00:46:07;3.90;;;3.30;;
48524;SDS011;34316;51.514;-0.178;2023-11-19T00:48:09;4.25;;;3.28;;
48524;SDS011;34316;51.514;-0.178;2023-11-19T00:50:13;4.13;;;3.45;;
48524;SDS011;34316;51.514;-0.178;2023-11-19T00:52:16;3.22;;;2.92;;
48524;SDS011;34316;51.514;-0.178;2023-11-19T00:54:18;3.85;;;3.15;;
48524;SDS011;34316;51.514;-0.178;2023-11-19T00:56:20;3.92;;;3.10;;
48524;SDS011;34316;51.514;-0.178;2023-11-19T00:58:22;3.70;;;3.28;;
48524;SDS011;34316;51.514;-0.178;2023-11-19T01:00:25;3.80;;;3.05;;
48524;SDS011;34316;51.514;-0.178;2023-11-19T01:02:29;3.30;;;2.70;;
48524;SDS011;34316;51.514;-0.178;2023-11-19T01:04:34;3.78;;;3.10;;
48524;SDS011;34316;51.514;-0.178;2023-11-19T01:06:37;3.97;;;3.30;;
48524;SDS011;34316;51.514;-0.178;2023-11-19T01:08:49;3.92;;;3.15;;
48524;SDS011;34316;51.514;-0.178;2023-11-19T01:10:51;4.40;;;3.10;;
48524;SDS011;34316;51.514;-0.178;2023-11-19T01:12:55;3.10;;;2.80;;
48524;SDS011;34316;51.514;-0.178;2023-11-19T01:14:57;3.55;;;3.08;;
48524;SDS011;34316;51.514;-0.178;2023-11-19T01:16:59;6.45;;;2.90;;
48524;SDS011;34316;51.514;-0.178;2023-11-19T01:19:02;4.75;;;2.67;;
48524;SDS011;34316;51.514;-0.178;2023-11-19T01:21:18;3.95;;;2.80;;
48524;SDS011;34316;51.514;-0.178;2023-11-19T01:23:20;4.00;;;3.00;;
48524;SDS011;34316;51.514;-0.178;2023-11-19T01:25:22;3.63;;;3.00;;
48524;SDS011;34316;51.514;-0.178;2023-11-19T01:27:24;4.28;;;2.72;;
48524;SDS011;34316;51.514;-0.178;2023-11-19T01:29:26;4.22;;;2.92;;
48524;SDS011;34316;51.514;-0.178;2023-11-19T01:31:27;3.53;;;2.75;;
48524;SDS011;34316;51.514;-0.178;2023-11-19T01:33:29;3.42;;;2.80;;
48524;SDS011;34316;51.514;-0.178;2023-11-19T01:35:31;4.28;;;2.85;;
48524;SDS011;34316;51.514;-0.178;2023-11-19T01:37:33;3.58;;;2.88;;
48524;SDS011;34316;51.514;-0.178;2023-11-19T01:39:36;5.25;;;2.63;;
48524;SDS011;34316;51.514;-0.178;2023-11-19T01:41:38;3.53;;;2.80;;
48524;SDS011;34316;51.514;-0.178;2023-11-19T01:43:40;3.53;;;2.72;;
48524;SDS011;34316;51.514;-0.178;2023-11-19T01:45:48;3.00;;;2.70;;
48524;SDS011;34316;51.514;-0.178;2023-11-19T01:47:52;3.08;;;2.58;;
48524;SDS011;34316;51.514;-0.178;2023-11-19T01:49:53;3.00;;;2.60;;
48524;SDS011;34316;51.514;-0.178;2023-11-19T01:51:56;3.60;;;2.90;;
48524;SDS011;34316;51.514;-0.178;2023-11-19T01:53:59;3.15;;;2.80;;
48524;SDS011;34316;51.514;-0.178;2023-11-19T01:56:00;3.17;;;2.78;;
48524;SDS011;34316;51.514;-0.178;2023-11-19T01:58:02;3.55;;;2.95;;
48524;SDS011;34316;51.514;-0.178;2023-11-19T02:00:05;3.40;;;2.63;;
48524;SDS011;34316;51.514;-0.178;2023-11-19T02:02:07;3.40;;;3.10;;
48524;SDS011;34316;51.514;-0.178;2023-11-19T02:04:10;3.08;;;2.60;;
48524;SDS011;34316;51.514;-0.178;2023-11-19T02:06:13;3.60;;;3.10;;
48524;SDS011;34316;51.514;-0.178;2023-11-19T02:08:15;3.10;;;2.42;;
48524;SDS011;34316;51.514;-0.178;2023-11-19T02:10:16;4.28;;;2.80;;
48524;SDS011;34316;51.514;-0.178;2023-11-19T02:14:23;4.07;;;2.58;;
48524;SDS011;34316;51.514;-0.178;2023-11-19T02:16:27;3.45;;;2.65;;
48524;SDS011;34316;51.514;-0.178;2023-11-19T02:18:29;3.95;;;2.75;;
48524;SDS011;34316;51.514;-0.178;2023-11-19T02:20:31;3.78;;;2.72;;
48524;SDS011;34316;51.514;-0.178;2023-11-19T02:22:33;2.88;;;2.47;;
48524;SDS011;34316;51.514;-0.178;2023-11-19T02:24:34;3.25;;;2.80;;
48524;SDS011;34316;51.514;-0.178;2023-11-19T02:26:39;3.08;;;2.58;;
48524;SDS011;34316;51.514;-0.178;2023-11-19T02:28:43;3.08;;;2.60;;
48524;SDS011;34316;51.514;-0.178;2023-11-19T02:30:45;3.30;;;2.72;;
48524;SDS011;34316;51.514;-0.178;2023-11-19T02:32:47;3.92;;;2.92;;
48524;SDS011;34316;51.514;-0.178;2023-11-19T02:34:49;3.50;;;3.00;;
48524;SDS011;34316;51.514;-0.178;2023-11-19T02:36:51;4.32;;;2.88;;
48524;SDS011;34316;51.514;-0.178;2023-11-19T02:38:55;3.70;;;3.03;;
48524;SDS011;34316;51.514;-0.178;2023-11-19T02:40:57;3.40;;;2.72;;
48524;SDS011;34316;51.514;-0.178;2023-11-19T02:42:58;3.80;;;2.85;;
48524;SDS011;34316;51.514;-0.178;2023-11-19T02:45:01;3.25;;;2.60;;
48524;SDS011;34316;51.514;-0.178;2023-11-19T02:47:05;6.75;;;3.28;;
48524;SDS011;34316;51.514;-0.178;2023-11-19T02:49:09;4.57;;;3.00;;
48524;SDS011;34316;51.514;-0.178;2023-11-19T02:51:11;3.40;;;2.95;;
48524;SDS011;34316;51.514;-0.178;2023-11-19T02:53:13;4.00;;;2.72;;
48524;SDS011;34316;51.514;-0.178;2023-11-19T02:55:15;3.72;;;2.70;;
48524;SDS011;34316;51.514;-0.178;2023-11-19T02:57:19;4.15;;;2.90;;
48524;SDS011;34316;51.514;-0.178;2023-11-19T02:59:23;6.05;;;3.00;;
48524;SDS011;34316;51.514;-0.178;2023-11-19T03:01:40;5.90;;;2.80;;
48524;SDS011;34316;51.514;-0.178;2023-11-19T03:03:45;3.63;;;2.97;;
48524;SDS011;34316;51.514;-0.178;2023-11-19T03:05:50;3.47;;;2.70;;
48524;SDS011;34316;51.514;-0.178;2023-11-19T03:07:53;2.88;;;2.40;;
48524;SDS011;34316;51.514;-0.178;2023-11-19T03:09:54;3.55;;;2.70;;
48524;SDS011;34316;51.514;-0.178;2023-11-19T03:11:56;3.72;;;3.00;;
48524;SDS011;34316;51.514;-0.178;2023-11-19T03:13:58;4.07;;;2.88;;
48524;SDS011;34316;51.514;-0.178;2023-11-19T03:16:00;3.20;;;2.75;;
48524;SDS011;34316;51.514;-0.178;2023-11-19T03:18:02;3.70;;;2.95;;
48524;SDS011;34316;51.514;-0.178;2023-11-19T03:20:05;3.45;;;2.90;;
48524;SDS011;34316;51.514;-0.178;2023-11-19T03:22:08;4.18;;;3.15;;
48524;SDS011;34316;51.514;-0.178;2023-11-19T03:24:15;3.45;;;2.80;;
48524;SDS011;34316;51.514;-0.178;2023-11-19T03:26:17;4.22;;;3.13;;
48524;SDS011;34316;51.514;-0.178;2023-11-19T03:28:18;4.03;;;3.13;;
48524;SDS011;34316;51.514;-0.178;2023-11-19T03:30:20;3.70;;;3.00;;
48524;SDS011;34316;51.514;-0.178;2023-11-19T03:32:33;4.03;;;3.20;;
48524;SDS011;34316;51.514;-0.178;2023-11-19T03:34:36;6.80;;;3.00;;
48524;SDS011;34316;51.514;-0.178;2023-11-19T03:36:38;6.18;;;3.08;;
48524;SDS011;34316;51.514;-0.178;2023-11-19T03:38:41;3.20;;;2.67;;
48524;SDS011;34316;51.514;-0.178;2023-11-19T03:40:44;4.45;;;3.03;;
48524;SDS011;34316;51.514;-0.178;2023-11-19T03:42:46;4.35;;;3.15;;
48524;SDS011;34316;51.514;-0.178;2023-11-19T03:44:48;3.70;;;2.97;;
48524;SDS011;34316;51.514;-0.178;2023-11-19T03:46:51;2.92;;;2.58;;
48524;SDS011;34316;51.514;-0.178;2023-11-19T03:48:53;3.78;;;3.08;;
48524;SDS011;34316;51.514;-0.178;2023-11-19T03:50:55;4.25;;;3.28;;
48524;SDS011;34316;51.514;-0.178;2023-11-19T03:52:56;4.50;;;3.25;;
48524;SDS011;34316;51.514;-0.178;2023-11-19T03:54:58;3.40;;;3.00;;
48524;SDS011;34316;51.514;-0.178;2023-11-19T03:57:02;4.72;;;3.25;;
48524;SDS011;34316;51.514;-0.178;2023-11-19T03:59:05;3.20;;;2.72;;
48524;SDS011;34316;51.514;-0.178;2023-11-19T04:01:10;4.72;;;3.08;;
48524;SDS011;34316;51.514;-0.178;2023-11-19T04:03:14;4.18;;;2.97;;
48524;SDS011;34316;51.514;-0.178;2023-11-19T04:05:16;3.80;;;2.85;;
48524;SDS011;34316;51.514;-0.178;2023-11-19T04:07:20;3.83;;;2.95;;
48524;SDS011;34316;51.514;-0.178;2023-11-19T04:09:22;3.63;;;3.00;;
48524;SDS011;34316;51.514;-0.178;2023-11-19T04:11:24;4.25;;;2.80;;
48524;SDS011;34316;51.514;-0.178;2023-11-19T04:13:26;3.40;;;2.58;;
48524;SDS011;34316;51.514;-0.178;2023-11-19T04:15:28;5.53;;;3.22;;
48524;SDS011;34316;51.514;-0.178;2023-11-19T04:17:30;3.28;;;2.70;;
48524;SDS011;34316;51.514;-0.178;2023-11-19T04:19:32;4.93;;;3.45;;
48524;SDS011;34316;51.514;-0.178;2023-11-19T04:21:34;4.00;;;3.10;;
48524;SDS011;34316;51.514;-0.178;2023-11-19T04:23:36;3.95;;;3.40;;
48524;SDS011;34316;51.514;-0.178;2023-11-19T04:25:38;4.60;;;3.28;;
48524;SDS011;34316;51.514;-0.178;2023-11-19T04:27:39;2.92;;;2.60;;
48524;SDS011;34316;51.514;-0.178;2023-11-19T04:29:41;4.00;;;2.95;;
48524;SDS011;34316;51.514;-0.178;2023-11-19T04:31:43;4.78;;;2.83;;
48524;SDS011;34316;51.514;-0.178;2023-11-19T04:33:48;3.67;;;2.85;;
48524;SDS011;34316;51.514;-0.178;2023-11-19T04:35:50;4.63;;;3.00;;
48524;SDS011;34316;51.514;-0.178;2023-11-19T04:37:51;3.67;;;2.88;;
48524;SDS011;34316;51.514;-0.178;2023-11-19T04:39:53;4.03;;;2.90;;
48524;SDS011;34316;51.514;-0.178;2023-11-19T04:41:55;3.90;;;2.78;;
48524;SDS011;34316;51.514;-0.178;2023-11-19T04:43:57;3.95;;;3.20;;
48524;SDS011;34316;51.514;-0.178;2023-11-19T04:45:59;4.05;;;2.72;;
48524;SDS011;34316;51.514;-0.178;2023-11-19T04:48:01;4.90;;;3.10;;
48524;SDS011;34316;51.514;-0.178;2023-11-19T04:50:02;4.15;;;2.58;;
48524;SDS011;34316;51.514;-0.178;2023-11-19T04:52:05;4.30;;;3.00;;
48524;SDS011;34316;51.514;-0.178;2023-11-19T04:54:07;3.95;;;3.10;;
48524;SDS011;34316;51.514;-0.178;2023-11-19T04:56:10;3.73;;;3.30;;
48524;SDS011;34316;51.514;-0.178;2023-11-19T04:58:12;3.85;;;2.90;;
48524;SDS011;34316;51.514;-0.178;2023-11-19T05:00:14;3.60;;;2.78;;
48524;SDS011;34316;51.514;-0.178;2023-11-19T05:02:17;3.60;;;2.75;;
48524;SDS011;34316;51.514;-0.178;2023-11-19T05:04:19;3.70;;;3.25;;
48524;SDS011;34316;51.514;-0.178;2023-11-19T05:06:21;3.30;;;2.85;;
48524;SDS011;34316;51.514;-0.178;2023-11-19T05:08:23;3.58;;;3.10;;
48524;SDS011;34316;51.514;-0.178;2023-11-19T05:10:25;4.25;;;3.45;;
48524;SDS011;34316;51.514;-0.178;2023-11-19T05:12:27;3.80;;;2.97;;
48524;SDS011;34316;51.514;-0.178;2023-11-19T05:14:29;3.80;;;3.08;;
48524;SDS011;34316;51.514;-0.178;2023-11-19T05:16:31;4.80;;;3.38;;
48524;SDS011;34316;51.514;-0.178;2023-11-19T05:18:33;4.20;;;3.28;;
48524;SDS011;34316;51.514;-0.178;2023-11-19T05:20:35;3.58;;;3.08;;
48524;SDS011;34316;51.514;-0.178;2023-11-19T05:22:37;3.88;;;3.08;;
48524;SDS011;34316;51.514;-0.178;2023-11-19T05:24:38;5.68;;;3.28;;
48524;SDS011;34316;51.514;-0.178;2023-11-19T05:26:42;4.80;;;3.20;;
48524;SDS011;34316;51.514;-0.178;2023-11-19T05:28:44;4.25;;;3.28;;
48524;SDS011;34316;51.514;-0.178;2023-11-19T05:30:45;4.65;;;3.38;;
48524;SDS011;34316;51.514;-0.178;2023-11-19T05:32:47;5.18;;;2.85;;
48524;SDS011;34316;51.514;-0.178;2023-11-19T05:34:49;3.88;;;3.10;;
48524;SDS011;34316;51.514;-0.178;2023-11-19T05:38:55;3.70;;;3.17;;
48524;SDS011;34316;51.514;-0.178;2023-11-19T05:40:57;3.67;;;2.85;;
48524;SDS011;34316;51.514;-0.178;2023-11-19T05:42:59;3.95;;;3.00;;
48524;SDS011;34316;51.514;-0.178;2023-11-19T05:45:01;4.03;;;2.92;;
48524;SDS011;34316;51.514;-0.178;2023-11-19T05:47:03;5.18;;;3.10;;
48524;SDS011;34316;51.514;-0.178;2023-11-19T05:49:05;3.65;;;3.30;;
48524;SDS011;34316;51.514;-0.178;2023-11-19T05:51:07;3.75;;;3.33;;
48524;SDS011;34316;51.514;-0.178;2023-11-19T05:53:09;3.78;;;3.03;;
48524;SDS011;34316;51.514;-0.178;2023-11-19T05:55:11;3.60;;;2.95;;
48524;SDS011;34316;51.514;-0.178;2023-11-19T05:57:14;3.92;;;3.05;;
48524;SDS011;34316;51.514;-0.178;2023-11-19T05:59:20;4.55;;;3.35;;
48524;SDS011;34316;51.514;-0.178;2023-11-19T06:01:24;4.35;;;3.40;;
48524;SDS011;34316;51.514;-0.178;2023-11-19T06:03:26;6.60;;;3.05;;
48524;SDS011;34316;51.514;-0.178;2023-11-19T06:05:28;3.83;;;3.33;;
48524;SDS011;34316;51.514;-0.178;2023-11-19T06:07:29;4.82;;;3.00;;
48524;SDS011;34316;51.514;-0.178;2023-11-19T06:09:31;6.32;;;3.60;;
48524;SDS011;34316;51.514;-0.178;2023-11-19T06:11:35;8.65;;;3.67;;
48524;SDS011;34316;51.514;-0.178;2023-11-19T06:13:37;5.38;;;3.80;;
48524;SDS011;34316;51.514;-0.178;2023-11-19T06:15:39;4.60;;;3.60;;
48524;SDS011;34316;51.514;-0.178;2023-11-19T06:17:42;4.85;;;3.75;;
48524;SDS011;34316;51.514;-0.178;2023-11-19T06:19:44;5.00;;;3.58;;
48524;SDS011;34316;51.514;-0.178;2023-11-19T06:21:46;5.30;;;3.95;;
48524;SDS011;34316;51.514;-0.178;2023-11-19T06:23:48;3.92;;;3.20;;
48524;SDS011;34316;51.514;-0.178;2023-11-19T06:25:50;4.38;;;3.40;;
48524;SDS011;34316;51.514;-0.178;2023-11-19T06:27:52;4.95;;;3.20;;
48524;SDS011;34316;51.514;-0.178;2023-11-19T06:29:54;5.20;;;3.35;;
48524;SDS011;34316;51.514;-0.178;2023-11-19T06:31:56;3.80;;;3.22;;
48524;SDS011;34316;51.514;-0.178;2023-11-19T06:33:58;6.15;;;3.40;;
48524;SDS011;34316;51.514;-0.178;2023-11-19T06:36:00;5.00;;;3.20;;
48524;SDS011;34316;51.514;-0.178;2023-11-19T06:38:02;3.78;;;3.15;;
48524;SDS011;34316;51.514;-0.178;2023-11-19T06:40:06;4.72;;;3.53;;
48524;SDS011;34316;51.514;-0.178;2023-11-19T06:42:10;6.30;;;3.90;;
48524;SDS011;34316;51.514;-0.178;2023-11-19T06:44:12;5.18;;;3.53;;
48524;SDS011;34316;51.514;-0.178;2023-11-19T06:46:18;4.43;;;3.70;;
48524;SDS011;34316;51.514;-0.178;2023-11-19T06:48:20;4.72;;;3.65;;
48524;SDS011;34316;51.514;-0.178;2023-11-19T06:50:22;5.15;;;3.55;;
48524;SDS011;34316;51.514;-0.178;2023-11-19T06:52:25;5.53;;;3.60;;
48524;SDS011;34316;51.514;-0.178;2023-11-19T06:54:27;4.43;;;3.58;;
48524;SDS011;34316;51.514;-0.178;2023-11-19T06:56:28;4.82;;;4.22;;
48524;SDS011;34316;51.514;-0.178;2023-11-19T06:58:36;6.50;;;3.88;;
48524;SDS011;34316;51.514;-0.178;2023-11-19T07:00:38;4.82;;;3.72;;
48524;SDS011;34316;51.514;-0.178;2023-11-19T07:02:39;5.03;;;4.35;;
48524;SDS011;34316;51.514;-0.178;2023-11-19T07:04:41;6.40;;;4.13;;
48524;SDS011;34316;51.514;-0.178;2023-11-19T07:06:43;5.15;;;3.92;;
48524;SDS011;34316;51.514;-0.178;2023-11-19T07:08:45;4.70;;;3.90;;
48524;SDS011;34316;51.514;-0.178;2023-11-19T07:10:48;7.30;;;4.47;;
48524;SDS011;34316;51.514;-0.178;2023-11-19T07:12:50;4.85;;;4.20;;
48524;SDS011;34316;51.514;-0.178;2023-11-19T07:14:52;7.75;;;4.47;;
48524;SDS011;34316;51.514;-0.178;2023-11-19T07:16:54;9.60;;;4.30;;
48524;SDS011;34316;51.514;-0.178;2023-11-19T07:18:57;7.80;;;3.78;;
48524;SDS011;34316;51.514;-0.178;2023-11-19T07:21:00;5.37;;;3.90;;
48524;SDS011;34316;51.514;-0.178;2023-11-19T07:23:01;4.85;;;4.13;;
48524;SDS011;34316;51.514;-0.178;2023-11-19T07:25:04;4.78;;;3.90;;
48524;SDS011;34316;51.514;-0.178;2023-11-19T07:27:06;5.78;;;3.85;;
48524;SDS011;34316;51.514;-0.178;2023-11-19T07:29:10;6.40;;;4.22;;
48524;SDS011;34316;51.514;-0.178;2023-11-19T07:31:12;5.50;;;4.05;;
48524;SDS011;34316;51.514;-0.178;2023-11-19T07:33:14;6.13;;;4.20;;
48524;SDS011;34316;51.514;-0.178;2023-11-19T07:35:16;5.25;;;4.55;;
48524;SDS011;34316;51.514;-0.178;2023-11-19T07:37:18;7.55;;;4.00;;
48524;SDS011;34316;51.514;-0.178;2023-11-19T07:39:20;5.15;;;4.00;;
48524;SDS011;34316;51.514;-0.178;2023-11-19T07:41:22;5.47;;;4.40;;
48524;SDS011;34316;51.514;-0.178;2023-11-19T07:43:24;6.25;;;4.43;;
48524;SDS011;34316;51.514;-0.178;2023-11-19T07:45:26;5.18;;;4.07;;
48524;SDS011;34316;51.514;-0.178;2023-11-19T07:47:28;5.45;;;3.97;;
48524;SDS011;34316;51.514;-0.178;2023-11-19T07:49:30;4.72;;;4.13;;
48524;SDS011;34316;51.514;-0.178;2023-11-19T07:51:32;5.47;;;4.53;;
48524;SDS011;34316;51.514;-0.178;2023-11-19T07:53:34;6.15;;;4.93;;
48524;SDS011;34316;51.514;-0.178;2023-11-19T07:55:36;4.80;;;3.85;;
48524;SDS011;34316;51.514;-0.178;2023-11-19T07:57:42;4.97;;;4.13;;
48524;SDS011;34316;51.514;-0.178;2023-11-19T07:59:44;6.40;;;4.38;;
48524;SDS011;34316;51.514;-0.178;2023-11-19T08:01:46;4.88;;;3.72;;
48524;SDS011;34316;51.514;-0.178;2023-11-19T08:03:49;4.78;;;4.28;;
48524;SDS011;34316;51.514;-0.178;2023-11-19T08:05:56;6.90;;;4.50;;
48524;SDS011;34316;51.514;-0.178;2023-11-19T08:07:58;10.40;;;4.55;;
48524;SDS011;34316;51.514;-0.178;2023-11-19T08:10:01;6.70;;;5.10;;
48524;SDS011;34316;51.514;-0.178;2023-11-19T08:12:03;7.05;;;4.82;;
48524;SDS011;34316;51.514;-0.178;2023-11-19T08:14:05;5.50;;;4.40;;
48524;SDS011;34316;51.514;-0.178;2023-11-19T08:16:07;5.78;;;4.32;;
48524;SDS011;34316;51.514;-0.178;2023-11-19T08:18:09;5.22;;;4.40;;
48524;SDS011;34316;51.514;-0.178;2023-11-19T08:20:11;5.15;;;4.57;;
48524;SDS011;34316;51.514;-0.178;2023-11-19T08:22:13;5.57;;;4.55;;
48524;SDS011;34316;51.514;-0.178;2023-11-19T08:24:14;5.50;;;4.43;;
48524;SDS011;34316;51.514;-0.178;2023-11-19T08:26:16;7.07;;;4.70;;
48524;SDS011;34316;51.514;-0.178;2023-11-19T08:28:22;5.00;;;4.18;;
48524;SDS011;34316;51.514;-0.178;2023-11-19T08:30:24;6.47;;;4.63;;
48524;SDS011;34316;51.514;-0.178;2023-11-19T08:32:26;6.15;;;4.47;;
48524;SDS011;34316;51.514;-0.178;2023-11-19T08:34:29;5.75;;;4.40;;
48524;SDS011;34316;51.514;-0.178;2023-11-19T08:36:31;5.35;;;4.07;;
48524;SDS011;34316;51.514;-0.178;2023-11-19T08:38:33;5.63;;;4.60;;
48524;SDS011;34316;51.514;-0.178;2023-11-19T08:40:34;6.20;;;5.18;;
48524;SDS011;34316;51.514;-0.178;2023-11-19T08:42:36;6.20;;;5.00;;
48524;SDS011;34316;51.514;-0.178;2023-11-19T08:46:48;6.03;;;4.47;;
48524;SDS011;34316;51.514;-0.178;2023-11-19T08:48:50;5.18;;;3.95;;
48524;SDS011;34316;51.514;-0.178;2023-11-19T08:50:52;6.13;;;4.45;;
48524;SDS011;34316;51.514;-0.178;2023-11-19T08:52:54;5.30;;;4.03;;
48524;SDS011;34316;51.514;-0.178;2023-11-19T08:54:56;4.90;;;3.65;;
48524;SDS011;34316;51.514;-0.178;2023-11-19T08:56:58;6.53;;;4.18;;
48524;SDS011;34316;51.514;-0.178;2023-11-19T08:59:01;5.32;;;4.20;;
48524;SDS011;34316;51.514;-0.178;2023-11-19T09:01:03;6.00;;;4.95;;
48524;SDS011;34316;51.514;-0.178;2023-11-19T09:03:05;5.32;;;4.82;;
48524;SDS011;34316;51.514;-0.178;2023-11-19T09:05:08;6.28;;;4.18;;
48524;SDS011;34316;51.514;-0.178;2023-11-19T09:07:10;6.00;;;4.63;;
48524;SDS011;34316;51.514;-0.178;2023-11-19T09:09:12;5.20;;;4.30;;
48524;SDS011;34316;51.514;-0.178;2023-11-19T09:11:13;6.75;;;4.22;;
48524;SDS011;34316;51.514;-0.178;2023-11-19T09:13:15;5.20;;;4.65;;
48524;SDS011;34316;51.514;-0.178;2023-11-19T09:15:17;6.05;;;4.63;;
48524;SDS011;34316;51.514;-0.178;2023-11-19T09:17:19;6.20;;;4.35;;
48524;SDS011;34316;51.514;-0.178;2023-11-19T09:19:21;4.30;;;3.88;;
48524;SDS011;34316;51.514;-0.178;2023-11-19T09:21:23;6.05;;;4.95;;
48524;SDS011;34316;51.514;-0.178;2023-11-19T09:23:24;5.32;;;4.22;;
48524;SDS011;34316;51.514;-0.178;2023-11-19T09:25:26;6.70;;;4.20;;
48524;SDS011;34316;51.514;-0.178;2023-11-19T09:27:44;4.45;;;3.75;;
48524;SDS011;34316;51.514;-0.178;2023-11-19T09:29:46;6.00;;;4.13;;
48524;SDS011;34316;51.514;-0.178;2023-11-19T09:31:50;4.45;;;3.83;;
48524;SDS011;34316;51.514;-0.178;2023-11-19T09:33:52;4.43;;;3.80;;
48524;SDS011;34316;51.514;-0.178;2023-11-19T09:35:54;6.20;;;3.85;;
48524;SDS011;34316;51.514;-0.178;2023-11-19T09:37:56;5.07;;;4.15;;
48524;SDS011;34316;51.514;-0.178;2023-11-19T09:39:58;4.65;;;4.05;;
48524;SDS011;34316;51.514;-0.178;2023-11-19T09:42:00;4.85;;;4.15;;
48524;SDS011;34316;51.514;-0.178;2023-11-19T09:44:02;5.43;;;4.50;;
48524;SDS011;34316;51.514;-0.178;2023-11-19T09:46:04;5.57;;;4.57;;
48524;SDS011;34316;51.514;-0.178;2023-11-19T09:48:11;5.07;;;4.40;;
48524;SDS011;34316;51.514;-0.178;2023-11-19T09:50:17;6.97;;;5.18;;
48524;SDS011;34316;51.514;-0.178;2023-11-19T09:52:22;5.97;;;4.25;;
48524;SDS011;34316;51.514;-0.178;2023-11-19T09:54:25;4.93;;;3.97;;
48524;SDS011;34316;51.514;-0.178;2023-11-19T09:56:28;5.32;;;4.22;;
48524;SDS011;34316;51.514;-0.178;2023-11-19T09:58:31;5.25;;;4.30;;
48524;SDS011;34316;51.514;-0.178;2023-11-19T10:00:34;5.65;;;3.90;;
48524;SDS011;34316;51.514;-0.178;2023-11-19T10:02:36;5.05;;;4.00;;
48524;SDS011;34316;51.514;-0.178;2023-11-19T10:04:38;4.35;;;3.90;;
48524;SDS011;34316;51.514;-0.178;2023-11-19T10:06:41;5.97;;;3.88;;
48524;SDS011;34316;51.514;-0.178;2023-11-19T10:08:43;5.90;;;4.70;;
48524;SDS011;34316;51.514;-0.178;2023-11-19T10:10:45;7.28;;;4.40;;
48524;SDS011;34316;51.514;-0.178;2023-11-19T10:12:47;5.45;;;4.28;;
48524;SDS011;34316;51.514;-0.178;2023-11-19T10:14:52;5.07;;;4.00;;
48524;SDS011;34316;51.514;-0.178;2023-11-19T10:16:58;4.95;;;3.70;;
48524;SDS011;34316;51.514;-0.178;2023-11-19T10:19:00;3.78;;;3.10;;
48524;SDS011;34316;51.514;-0.178;2023-11-19T10:21:02;5.10;;;4.28;;
48524;SDS011;34316;51.514;-0.178;2023-11-19T10:23:04;5.65;;;3.50;;
48524;SDS011;34316;51.514;-0.178;2023-11-19T10:25:25;3.88;;;3.33;;
48524;SDS011;34316;51.514;-0.178;2023-11-19T10:27:27;4.82;;;3.90;;
48524;SDS011;34316;51.514;-0.178;2023-11-19T10:29:29;4.03;;;3.40;;
48524;SDS011;34316;51.514;-0.178;2023-11-19T10:31:31;3.70;;;2.80;;
48524;SDS011;34316;51.514;-0.178;2023-11-19T10:33:33;5.30;;;3.97;;
48524;SDS011;34316;51.514;-0.178;2023-11-19T10:35:50;4.70;;;3.45;;
48524;SDS011;34316;51.514;-0.178;2023-11-19T10:38:14;5.45;;;4.22;;
48524;SDS011;34316;51.514;-0.178;2023-11-19T10:40:17;4.63;;;3.75;;
48524;SDS011;34316;51.514;-0.178;2023-11-19T10:42:19;4.20;;;3.42;;
48524;SDS011;34316;51.514;-0.178;2023-11-19T10:44:31;4.30;;;3.63;;
48524;SDS011;34316;51.514;-0.178;2023-11-19T10:48:40;5.18;;;3.90;;
48524;SDS011;34316;51.514;-0.178;2023-11-19T10:50:43;5.22;;;3.78;;
48524;SDS011;34316;51.514;-0.178;2023-11-19T10:52:46;5.68;;;4.35;;
48524;SDS011;34316;51.514;-0.178;2023-11-19T10:54:50;5.25;;;4.00;;
48524;SDS011;34316;51.514;-0.178;2023-11-19T10:56:58;5.03;;;3.92;;
48524;SDS011;34316;51.514;-0.178;2023-11-19T10:59:00;4.95;;;4.22;;
48524;SDS011;34316;51.514;-0.178;2023-11-19T11:01:06;6.22;;;4.18;;
48524;SDS011;34316;51.514;-0.178;2023-11-19T11:03:20;5.68;;;4.22;;
48524;SDS011;34316;51.514;-0.178;2023-11-19T11:05:27;3.67;;;3.05;;
48524;SDS011;34316;51.514;-0.178;2023-11-19T11:07:29;5.20;;;3.35;;
48524;SDS011;34316;51.514;-0.178;2023-11-19T11:09:41;5.90;;;3.25;;
48524;SDS011;34316;51.514;-0.178;2023-11-19T11:11:46;4.00;;;3.22;;
48524;SDS011;34316;51.514;-0.178;2023-11-19T11:13:49;4.35;;;3.38;;
48524;SDS011;34316;51.514;-0.178;2023-11-19T11:15:51;5.03;;;3.23;;
48524;SDS011;34316;51.514;-0.178;2023-11-19T11:17:57;4.95;;;3.35;;
48524;SDS011;34316;51.514;-0.178;2023-11-19T11:20:05;3.95;;;3.33;;
48524;SDS011;34316;51.514;-0.178;2023-11-19T11:22:08;5.15;;;3.22;;
48524;SDS011;34316;51.514;-0.178;2023-11-19T11:24:17;4.40;;;3.70;;
48524;SDS011;34316;51.514;-0.178;2023-11-19T11:31:56;4.45;;;3.40;;
48524;SDS011;34316;51.514;-0.178;2023-11-19T11:36:19;5.53;;;3.67;;
48524;SDS011;34316;51.514;-0.178;2023-11-19T11:38:22;6.43;;;4.10;;
48524;SDS011;34316;51.514;-0.178;2023-11-19T11:40:26;6.05;;;3.40;;
48524;SDS011;34316;51.514;-0.178;2023-11-19T11:42:32;11.65;;;5.28;;
48524;SDS011;34316;51.514;-0.178;2023-11-19T11:47:11;5.10;;;3.42;;
48524;SDS011;34316;51.514;-0.178;2023-11-19T11:49:13;4.55;;;3.70;;
48524;SDS011;34316;51.514;-0.178;2023-11-19T11:51:16;7.07;;;4.35;;
48524;SDS011;34316;51.514;-0.178;2023-11-19T11:53:19;4.35;;;3.53;;
48524;SDS011;34316;51.514;-0.178;2023-11-19T11:55:24;6.93;;;4.93;;
48524;SDS011;34316;51.514;-0.178;2023-11-19T11:57:26;7.45;;;4.25;;
48524;SDS011;34316;51.514;-0.178;2023-11-19T12:01:40;10.60;;;4.82;;
48524;SDS011;34316;51.514;-0.178;2023-11-19T12:03:59;7.05;;;4.40;;
48524;SDS011;34316;51.514;-0.178;2023-11-19T12:06:00;4.15;;;2.95;;
48524;SDS011;34316;51.514;-0.178;2023-11-19T12:08:04;4.70;;;3.30;;
48524;SDS011;34316;51.514;-0.178;2023-11-19T12:10:08;4.50;;;3.17;;
48524;SDS011;34316;51.514;-0.178;2023-11-19T12:12:21;4.70;;;3.17;;
48524;SDS011;34316;51.514;-0.178;2023-11-19T12:17:24;4.57;;;3.20;;
48524;SDS011;34316;51.514;-0.178;2023-11-19T12:19:35;5.15;;;4.00;;
48524;SDS011;34316;51.514;-0.178;2023-11-19T12:21:38;6.20;;;3.88;;
48524;SDS011;34316;51.514;-0.178;2023-11-19T12:23:46;4.90;;;3.28;;
48524;SDS011;34316;51.514;-0.178;2023-11-19T12:25:49;4.30;;;3.05;;
48524;SDS011;34316;51.514;-0.178;2023-11-19T12:27:51;3.75;;;2.70;;
48524;SDS011;34316;51.514;-0.178;2023-11-19T12:29:54;3.28;;;2.50;;
48524;SDS011;34316;51.514;-0.178;2023-11-19T12:31:58;3.90;;;3.42;;
48524;SDS011;34316;51.514;-0.178;2023-11-19T12:34:07;5.95;;;4.80;;